Chadstone Weather > Observations for 31/03/21

Select Day:



Observations
Time Temp Hum DP Wind Gust Dir Rain >9am Press
C % C kph kph mm hPa
00:00 13.7 88 11.8 0.0 0.0 N 0.0 1014.3
00:10 13.6 88 11.7 0.0 0.0 N 0.0 1014.3
00:20 13.5 88 11.6 0.0 0.0 N 0.0 1014.3
00:30 13.4 89 11.6 0.0 0.0 N 0.0 1014.1
00:40 13.4 89 11.6 0.0 0.0 N 0.0 1014.1
00:50 13.3 89 11.5 0.0 0.0 N 0.0 1014.2
01:00 13.2 89 11.4 0.0 0.0 N 0.0 1014.1
01:10 13.1 89 11.3 0.0 0.0 N 0.0 1014.2
01:20 13.0 90 11.4 0.0 0.0 N 0.0 1014.3
01:30 13.1 90 11.5 0.0 0.0 N 0.0 1014.3
01:40 13.2 91 11.8 0.0 0.0 N 0.0 1014.4
01:50 13.4 91 12.0 0.0 0.0 N 0.0 1014.4
02:00 13.6 92 12.3 0.0 0.0 N 0.0 1014.3
02:10 13.8 92 12.5 0.0 0.0 N 0.0 1014.3
02:20 14.0 91 12.6 0.0 0.0 N 0.0 1014.2
02:30 14.1 91 12.7 0.0 0.0 N 0.0 1014.2
02:40 14.2 91 12.8 0.0 0.0 N 0.0 1014.2
02:50 14.3 91 12.9 0.0 0.0 N 0.0 1014.1
03:00 14.4 91 13.0 0.0 0.0 N 0.0 1014.2
03:10 14.6 91 13.2 0.0 0.0 N 0.0 1014.1
03:20 14.6 91 13.2 0.0 0.0 N 0.0 1014.1
03:30 14.7 91 13.3 0.0 0.0 N 0.0 1014.1
03:40 14.8 91 13.4 0.0 0.0 N 0.0 1014.1
03:50 14.9 91 13.5 0.0 0.0 N 0.0 1014.0
04:00 15.0 90 13.4 0.0 0.0 N 0.0 1013.8
04:10 15.0 90 13.4 0.0 0.0 N 0.0 1013.6
04:20 15.0 90 13.4 0.0 0.0 N 0.0 1013.6
04:30 15.0 90 13.4 0.0 0.0 N 0.0 1013.6
04:40 15.1 90 13.5 0.0 0.0 N 0.0 1013.7
04:50 15.1 90 13.5 0.0 0.0 N 0.0 1013.6
05:00 15.1 89 13.3 0.0 0.0 N 0.0 1013.5
05:10 15.0 89 13.2 0.0 0.0 N 0.0 1013.4
05:20 14.9 90 13.3 2.3 8.6 NW 0.0 1013.4
05:30 14.8 89 13.0 0.4 5.0 NW 0.0 1013.3
05:40 14.8 89 13.0 0.0 3.6 NW 0.0 1013.5
05:50 14.7 89 12.9 0.1 3.6 WNW 0.0 1013.7
06:00 14.7 89 12.9 0.1 3.6 NW 0.0 1013.7
06:10 14.8 89 13.0 0.0 0.0 N 0.0 1013.9
06:20 14.8 89 13.0 0.1 3.6 NW 0.0 1014.0
06:30 14.7 88 12.7 0.0 2.5 NW 0.0 1013.9
06:40 14.8 88 12.8 0.0 1.1 N 0.0 1013.8
06:50 14.7 88 12.7 0.1 3.6 N 0.0 1013.8
07:00 14.7 88 12.7 0.0 2.5 NNW 0.0 1013.9
07:10 14.7 88 12.7 0.0 1.1 NW 0.0 1014.0
07:20 14.7 88 12.7 0.0 1.1 NW 0.0 1014.1
07:30 14.7 88 12.7 0.0 1.1 W 0.0 1014.1
07:40 14.7 88 12.7 0.0 1.1 NW 0.0 1014.5
07:50 14.7 88 12.7 0.0 2.5 NW 0.0 1014.6
08:00 14.7 88 12.7 0.0 1.1 NW 0.0 1014.9
08:10 14.8 88 12.8 0.0 0.0 N 0.0 1014.9
08:20 14.8 88 12.8 0.3 3.6 NNW 0.0 1014.8
08:30 14.9 87 12.8 0.6 5.0 N 0.0 1015.1
08:40 15.0 86 12.7 1.2 3.6 N 0.0 1015.1
08:50 15.1 85 12.6 2.3 5.0 N 0.0 1015.3
09:00 15.1 85 12.6 0.6 5.0 N 0.0 1015.4
09:10 15.3 85 12.8 0.0 2.5 N 0.0 1015.5
09:20 15.5 85 13.0 0.0 2.5 NNW 0.0 1015.4
09:30 15.7 84 13.0 1.5 6.1 NNW 0.0 1015.4
09:40 15.9 84 13.2 1.4 6.1 N 0.0 1015.5
09:50 16.1 83 13.2 0.9 5.0 N 0.0 1015.9
10:00 16.4 82 13.3 1.4 5.0 N 0.0 1015.7
10:10 16.7 82 13.6 1.6 6.1 N 0.0 1015.5
10:20 17.0 81 13.7 2.2 6.1 NNW 0.0 1015.5
10:30 17.5 81 14.2 1.8 6.1 N 0.0 1015.6
10:40 17.8 80 14.3 0.6 3.6 N 0.0 1015.6
10:50 18.1 78 14.2 1.8 6.1 ENE 0.0 1015.5
11:00 18.3 77 14.2 0.7 5.0 N 0.0 1015.3
11:10 18.6 77 14.5 1.3 6.1 NNE 0.0 1015.1
11:20 18.9 76 14.6 2.0 8.6 W 0.0 1015.0
11:30 19.2 75 14.7 2.2 6.1 WSW 0.0 1015.0
11:40 19.2 73 14.3 0.3 5.0 S 0.0 1014.9
11:50 19.6 73 14.6 0.4 6.1 SE 0.0 1014.6
12:00 19.9 72 14.7 0.4 5.0 SSW 0.0 1014.5
12:10 20.3 70 14.7 2.1 7.2 E 0.0 1014.3
12:20 20.5 68 14.4 2.4 7.2 NNE 0.0 1013.9
12:30 20.9 67 14.6 3.0 7.2 N 0.0 1013.8
12:40 21.2 66 14.6 1.2 6.1 NNE 0.0 1013.7
12:50 21.5 65 14.7 2.0 8.6 WSW 0.0 1013.7
13:00 21.7 65 14.8 0.9 6.1 SW 0.0 1013.5
13:10 21.6 63 14.3 1.8 11.2 S 0.0 1013.5
13:20 21.9 65 15.0 2.3 13.3 SW 0.0 1013.4
13:30 21.8 65 14.9 2.2 11.2 NNW 0.0 1013.1
13:40 21.8 65 14.9 1.9 12.2 W 0.0 1012.8
13:50 21.8 65 14.9 2.3 8.6 WSW 0.0 1012.7
14:00 22.1 64 15.0 1.3 5.0 S 0.0 1012.5
14:10 22.1 63 14.7 0.9 7.2 SW 0.0 1012.3
14:20 22.1 63 14.7 0.9 5.0 SW 0.0 1012.1
14:30 22.3 63 14.9 1.8 8.6 SSW 0.0 1012.1
14:40 22.7 63 15.3 1.8 8.6 S 0.0 1011.8
14:50 22.9 61 15.0 2.5 7.2 ESE 0.0 1011.4
15:00 22.6 61 14.7 0.6 8.6 SE 0.0 1011.3
15:10 22.9 61 15.0 2.1 9.7 SSW 0.0 1011.0
15:20 23.0 59 14.6 2.2 7.2 SE 0.0 1010.9
15:30 23.1 57 14.1 0.2 5.0 ESE 0.0 1010.8
15:40 23.2 57 14.2 1.4 5.0 W 0.0 1010.7
15:50 23.0 56 13.8 1.1 5.0 SW 0.0 1010.7
16:00 23.3 56 14.0 0.8 5.0 WNW 0.0 1010.6
16:10 23.1 56 13.9 1.3 7.2 SSW 0.0 1010.7
16:20 23.3 55 13.8 1.4 6.1 SW 0.0 1010.7
16:30 23.2 53 13.1 1.3 5.0 SW 0.0 1010.6
16:40 23.3 54 13.5 0.8 5.0 SSW 0.0 1010.6
16:50 23.3 57 14.3 1.7 9.7 WSW 0.0 1010.6
17:00 23.1 57 14.1 0.8 7.2 S 0.0 1010.6
17:10 23.0 57 14.0 1.7 7.2 SW 0.0 1010.6
17:20 22.7 56 13.5 1.4 9.7 SW 0.0 1010.6
17:30 22.6 54 12.8 0.9 6.1 S 0.0 1010.6
17:40 22.6 55 13.1 1.3 7.2 SW 0.0 1010.6
17:50 22.5 54 12.7 0.7 6.1 SSW 0.0 1010.7
18:00 22.4 55 12.9 0.4 5.0 S 0.0 1010.7
18:10 22.3 56 13.1 0.4 5.0 SW 0.0 1010.8
18:20 22.2 56 13.0 0.2 2.5 SW 0.0 1010.8
18:30 22.0 57 13.1 0.2 3.6 S 0.0 1010.7
18:40 21.8 60 13.7 0.2 3.6 S 0.0 1010.8
18:50 21.5 62 13.9 0.7 5.0 SSW 0.0 1010.9
19:00 21.3 63 14.0 3.4 8.6 SSE 0.0 1011.1
19:10 21.0 65 14.2 3.4 7.2 S 0.0 1011.2
19:20 20.7 68 14.6 2.5 9.7 SE 0.0 1011.3
19:30 20.4 69 14.5 2.9 9.7 SE 0.0 1011.3
19:40 20.2 70 14.6 1.8 7.2 S 0.0 1011.4
19:50 20.0 71 14.6 1.8 7.2 SSE 0.0 1011.6
20:00 19.9 74 15.1 1.4 6.1 SSE 0.0 1011.8
20:10 19.7 74 14.9 0.9 5.0 SSE 0.0 1011.9
20:20 19.5 75 15.0 0.2 3.6 ESE 0.0 1012.0
20:30 19.1 76 14.8 0.0 0.0 N 0.0 1011.9
20:40 18.9 78 15.0 0.0 2.5 SE 0.0 1011.9
20:50 18.8 79 15.1 1.5 5.0 SSE 0.0 1012.0
21:00 18.7 80 15.2 1.2 5.0 SSE 0.0 1012.0
21:10 18.6 81 15.3 1.7 7.2 SE 0.0 1012.1
21:20 18.5 81 15.2 1.2 3.6 SE 0.0 1012.0
21:30 18.4 82 15.3 0.1 2.5 SE 0.0 1012.1
21:40 18.2 82 15.1 0.3 5.0 SE 0.0 1012.1
21:50 18.2 83 15.3 1.3 7.2 SE 0.0 1012.2
22:00 18.0 84 15.3 0.1 2.5 SE 0.0 1012.3
22:10 17.8 83 14.9 0.2 3.6 E 0.0 1012.6
22:20 17.7 83 14.8 0.0 0.0 N 0.0 1012.6
22:30 17.6 84 14.9 0.0 1.1 SE 0.0 1012.8
22:40 17.3 84 14.6 0.0 1.1 SE 0.0 1012.9
22:50 17.3 85 14.8 0.0 0.0 N 0.0 1012.9
23:00 17.1 85 14.6 0.0 0.0 N 0.0 1012.9
23:10 16.9 86 14.6 0.0 0.0 N 0.0 1012.8
23:20 16.8 86 14.5 0.0 0.0 N 0.0 1012.7
23:30 16.7 87 14.5 0.0 0.0 N 0.0 1012.7
23:40 16.5 87 14.3 0.0 0.0 N 0.0 1012.8
23:50 16.4 87 14.2 0.0 0.0 N 0.0 1012.6